createdAt,value
2018-04-26T00:01:55.781Z,3.13
2018-04-26T00:04:23.369Z,3.60
2018-04-26T00:06:50.931Z,3.20
2018-04-26T00:09:18.421Z,3.50
2018-04-26T00:11:45.881Z,3.40
2018-04-26T00:14:13.926Z,3.80
2018-04-26T00:16:41.377Z,3.47
2018-04-26T00:19:08.851Z,3.60
2018-04-26T00:21:36.318Z,3.33
2018-04-26T00:24:03.884Z,3.70
2018-04-26T00:26:31.540Z,3.57
2018-04-26T00:28:59.603Z,3.20
2018-04-26T00:31:27.119Z,3.40
2018-04-26T00:33:54.560Z,3.53
2018-04-26T00:36:22.061Z,3.40
2018-04-26T00:38:49.617Z,3.13
2018-04-26T00:41:17.127Z,3.37
2018-04-26T00:43:44.677Z,3.57
2018-04-26T00:46:12.174Z,3.40
2018-04-26T00:48:39.620Z,3.40
2018-04-26T00:51:07.173Z,3.37
2018-04-26T00:53:34.648Z,3.77
2018-04-26T00:56:02.136Z,3.60
2018-04-26T00:58:29.617Z,3.70
2018-04-26T01:00:58.258Z,3.40
2018-04-26T01:03:25.806Z,4.07
2018-04-26T01:05:53.267Z,3.53
2018-04-26T01:08:20.761Z,3.97
2018-04-26T01:10:48.278Z,3.80
2018-04-26T01:13:15.833Z,4.13
2018-04-26T01:15:43.329Z,3.63
2018-04-26T01:18:11.005Z,3.80
2018-04-26T01:20:38.463Z,3.63
2018-04-26T01:23:05.902Z,3.90
2018-04-26T01:25:33.441Z,3.90
2018-04-26T01:28:01.692Z,4.43
2018-04-26T01:30:29.156Z,3.57
2018-04-26T01:32:56.618Z,3.70
2018-04-26T01:35:24.127Z,3.50
2018-04-26T01:37:51.590Z,3.70
2018-04-26T01:40:19.165Z,3.97
2018-04-26T01:42:46.619Z,4.30
2018-04-26T01:45:14.742Z,3.57
2018-04-26T01:47:42.174Z,3.70
2018-04-26T01:50:09.702Z,3.47
2018-04-26T01:52:37.296Z,3.77
2018-04-26T01:55:04.904Z,4.07
2018-04-26T01:57:32.434Z,3.30
2018-04-26T01:59:59.881Z,3.60
2018-04-26T02:02:27.360Z,3.87
2018-04-26T02:04:54.874Z,3.70
2018-04-26T02:07:22.331Z,3.70
2018-04-26T02:09:49.755Z,3.70
2018-04-26T02:12:17.253Z,3.40
2018-04-26T02:14:44.720Z,4.30
2018-04-26T02:17:12.253Z,3.70
2018-04-26T02:19:39.711Z,3.73
2018-04-26T02:22:07.191Z,4.03
2018-04-26T02:24:34.653Z,4.23
2018-04-26T02:27:02.191Z,3.77
2018-04-26T02:29:29.649Z,4.00
2018-04-26T02:31:57.120Z,4.00
2018-04-26T02:34:24.652Z,4.00
2018-04-26T02:36:52.095Z,4.80
2018-04-26T02:39:19.646Z,4.00
2018-04-26T02:41:47.132Z,4.27
2018-04-26T02:44:14.613Z,4.47
2018-04-26T02:46:42.054Z,4.23
2018-04-26T02:49:10.292Z,3.97
2018-04-26T02:51:37.777Z,4.37
2018-04-26T02:54:05.239Z,5.40
2018-04-26T02:56:32.888Z,4.50
2018-04-26T02:59:00.320Z,5.37
2018-04-26T03:01:27.937Z,4.80
2018-04-26T03:03:55.480Z,4.50
2018-04-26T03:06:23.032Z,4.43
2018-04-26T03:08:50.602Z,4.00
2018-04-26T03:11:18.331Z,4.60
2018-04-26T03:13:45.763Z,4.50
2018-04-26T03:16:13.224Z,4.53
2018-04-26T03:18:40.765Z,4.30
2018-04-26T03:21:08.279Z,5.03
2018-04-26T03:23:35.742Z,4.60
2018-04-26T03:26:03.208Z,5.27
2018-04-26T03:28:30.642Z,4.57
2018-04-26T03:30:58.124Z,4.27
2018-04-26T03:33:25.681Z,4.73
2018-04-26T03:35:53.126Z,4.80
2018-04-26T03:38:20.604Z,4.93
2018-04-26T03:40:48.132Z,4.00
2018-04-26T03:43:15.690Z,4.87
2018-04-26T03:45:43.140Z,4.30
2018-04-26T03:48:10.618Z,5.70
2018-04-26T03:50:38.717Z,4.70
2018-04-26T03:53:06.262Z,4.40
2018-04-26T03:55:33.869Z,4.80
2018-04-26T03:58:01.530Z,4.33
2018-04-26T04:00:40.844Z,4.60
2018-04-26T04:06:15.146Z,4.50
2018-04-26T04:08:42.619Z,4.37
2018-04-26T04:11:10.080Z,4.60
2018-04-26T04:13:38.163Z,5.43
2018-04-26T04:16:05.691Z,4.10
2018-04-26T04:18:33.192Z,5.40
2018-04-26T04:21:00.683Z,5.20
2018-04-26T04:23:28.231Z,5.20
2018-04-26T04:25:55.812Z,4.80
2018-04-26T04:28:23.376Z,5.00
2018-04-26T04:30:50.934Z,5.40
2018-04-26T04:33:18.470Z,4.33
2018-04-26T04:35:45.934Z,5.27
2018-04-26T04:38:13.723Z,5.03
2018-04-26T04:40:41.288Z,4.93
2018-04-26T04:43:08.781Z,4.97
2018-04-26T04:45:36.215Z,5.10
2018-04-26T04:48:03.668Z,5.40
2018-04-26T04:50:31.124Z,5.43
2018-04-26T04:52:58.564Z,4.63
2018-04-26T04:55:26.032Z,4.87
2018-04-26T04:57:53.505Z,5.80
2018-04-26T05:00:20.987Z,5.07
2018-04-26T05:02:48.468Z,4.90
2018-04-26T05:05:16.126Z,5.00
2018-04-26T05:07:43.698Z,5.40
2018-04-26T05:10:11.250Z,5.10
2018-04-26T05:12:38.767Z,5.73
2018-04-26T05:15:06.237Z,5.00
2018-04-26T05:17:33.674Z,5.37
2018-04-26T05:20:01.248Z,6.00
2018-04-26T05:22:28.708Z,5.30
2018-04-26T05:24:56.215Z,5.40
2018-04-26T05:27:23.715Z,5.83
2018-04-26T05:29:51.165Z,4.80
2018-04-26T05:32:18.674Z,5.00
2018-04-26T05:34:46.120Z,4.40
2018-04-26T05:37:14.197Z,5.70
2018-04-26T05:39:41.696Z,5.70
2018-04-26T05:42:09.279Z,6.10
2018-04-26T05:44:36.819Z,6.97
2018-04-26T05:47:04.300Z,7.33
2018-04-26T05:49:31.792Z,6.40
2018-04-26T05:51:59.283Z,5.47
2018-04-26T05:54:26.751Z,8.33
2018-04-26T05:56:54.282Z,14.03
2018-04-26T05:59:21.763Z,11.70
2018-04-26T06:01:49.245Z,9.07
2018-04-26T06:04:16.753Z,7.43
2018-04-26T06:06:44.434Z,6.63
2018-04-26T06:09:12.309Z,6.13
2018-04-26T06:11:40.205Z,5.80
2018-04-26T06:14:07.716Z,5.33
2018-04-26T06:16:35.603Z,4.70
2018-04-26T06:19:03.118Z,4.60
2018-04-26T06:21:30.700Z,4.70
2018-04-26T06:23:58.313Z,5.03
2018-04-26T06:26:25.894Z,4.07
2018-04-26T06:28:53.531Z,4.00
2018-04-26T06:31:20.989Z,4.60
2018-04-26T06:33:48.541Z,4.57
2018-04-26T06:36:16.132Z,3.80
2018-04-26T06:38:43.665Z,3.97
2018-04-26T06:41:11.214Z,3.30
2018-04-26T06:43:38.721Z,3.00
2018-04-26T06:46:06.313Z,3.00
2018-04-26T06:48:34.674Z,3.53
2018-04-26T06:51:02.121Z,3.07
2018-04-26T06:53:29.621Z,3.00
2018-04-26T06:55:57.037Z,3.53
2018-04-26T06:58:24.599Z,3.40
2018-04-26T07:00:52.108Z,2.87
2018-04-26T07:03:20.265Z,3.33
2018-04-26T07:05:48.594Z,3.03
2018-04-26T07:08:16.120Z,3.90
2018-04-26T07:10:43.580Z,3.20
2018-04-26T07:13:11.127Z,3.50
2018-04-26T07:15:38.632Z,3.33
2018-04-26T07:18:06.159Z,3.23
2018-04-26T07:20:33.664Z,3.20
2018-04-26T07:23:01.151Z,3.40
2018-04-26T07:25:29.299Z,3.43
2018-04-26T07:27:56.833Z,3.37
2018-04-26T07:30:24.380Z,3.63
2018-04-26T07:32:51.958Z,2.80
2018-04-26T07:35:19.444Z,3.47
2018-04-26T07:37:46.918Z,3.10
2018-04-26T07:40:14.507Z,3.20
2018-04-26T07:42:41.972Z,3.07
2018-04-26T07:45:09.498Z,3.27
2018-04-26T07:47:37.055Z,3.60
2018-04-26T07:50:04.587Z,3.07
2018-04-26T07:52:32.089Z,3.67
2018-04-26T07:55:02.161Z,3.07
2018-04-26T07:57:29.699Z,3.07
2018-04-26T07:59:57.246Z,3.23
2018-04-26T08:02:24.856Z,3.10
2018-04-26T08:04:52.461Z,3.03
2018-04-26T08:07:20.075Z,2.87
2018-04-26T08:09:47.516Z,3.30
2018-04-26T08:12:14.986Z,3.37
2018-04-26T08:14:42.567Z,3.10
2018-04-26T08:17:10.101Z,2.97
2018-04-26T08:19:37.671Z,2.97
2018-04-26T08:22:05.455Z,3.30
2018-04-26T08:24:33.814Z,3.00
2018-04-26T08:27:01.780Z,3.30
2018-04-26T08:29:29.290Z,3.30
2018-04-26T08:31:57.026Z,3.50
2018-04-26T08:34:25.291Z,3.10
2018-04-26T08:36:53.088Z,3.00
2018-04-26T08:39:20.539Z,2.80
2018-04-26T08:41:48.321Z,3.00
2018-04-26T08:44:16.154Z,3.47
2018-04-26T08:46:43.652Z,3.40
2018-04-26T08:49:11.109Z,2.70
2018-04-26T08:51:38.721Z,3.43
2018-04-26T08:54:06.239Z,3.80
2018-04-26T08:56:34.058Z,3.53
2018-04-26T08:59:01.518Z,3.57
2018-04-26T09:01:28.991Z,3.53
2018-04-26T09:03:56.460Z,3.70
2018-04-26T09:06:24.160Z,3.70
2018-04-26T09:08:51.849Z,3.37
2018-04-26T09:11:19.342Z,3.83
2018-04-26T09:13:46.804Z,3.93
2018-04-26T09:16:14.448Z,3.40
2018-04-26T09:18:42.027Z,3.27
2018-04-26T09:21:09.615Z,3.20
2018-04-26T09:23:37.202Z,3.90
2018-04-26T09:26:04.671Z,3.27
2018-04-26T09:28:32.226Z,3.53
2018-04-26T09:30:59.688Z,3.40
2018-04-26T09:33:27.166Z,3.60
2018-04-26T09:35:54.734Z,3.77
2018-04-26T09:38:22.263Z,3.40
2018-04-26T09:40:49.708Z,3.37
2018-04-26T09:43:17.187Z,3.40
2018-04-26T09:45:44.653Z,3.00
2018-04-26T09:48:12.118Z,2.90
2018-04-26T09:50:39.626Z,3.00
2018-04-26T09:53:07.129Z,3.00
2018-04-26T09:55:34.688Z,3.03
2018-04-26T09:58:02.300Z,2.50
2018-04-26T10:00:29.787Z,2.40
2018-04-26T10:02:57.942Z,2.90
2018-04-26T10:05:30.813Z,3.07
2018-04-26T10:07:58.842Z,3.30
2018-04-26T10:10:26.652Z,3.20
2018-04-26T10:12:54.128Z,3.40
2018-04-26T10:15:21.614Z,2.73
2018-04-26T10:17:49.144Z,2.80
2018-04-26T10:20:16.760Z,2.70
2018-04-26T10:22:45.335Z,2.10
2018-04-26T10:25:12.750Z,2.60
2018-04-26T10:27:40.303Z,2.47
2018-04-26T10:30:07.745Z,2.30
2018-04-26T10:32:35.945Z,2.73
2018-04-26T10:35:03.469Z,2.60
2018-04-26T10:37:30.948Z,2.40
2018-04-26T10:39:58.455Z,2.57
2018-04-26T10:42:26.248Z,2.93
2018-04-26T10:44:53.671Z,3.00
2018-04-26T10:47:21.185Z,2.17
2018-04-26T10:49:48.690Z,2.23
2018-04-26T10:52:16.147Z,2.37
2018-04-26T10:54:44.690Z,2.47
2018-04-26T10:57:12.142Z,2.80
2018-04-26T10:59:39.776Z,2.33
2018-04-26T11:02:07.247Z,2.10
2018-04-26T11:04:34.718Z,2.30
2018-04-26T11:07:02.219Z,2.23
2018-04-26T11:09:29.671Z,2.33
2018-04-26T11:11:57.160Z,1.77
2018-04-26T11:14:24.660Z,1.70
2018-04-26T11:16:52.220Z,1.57
2018-04-26T11:19:19.776Z,1.80
2018-04-26T11:21:47.468Z,1.60
2018-04-26T11:24:14.922Z,1.70
2018-04-26T11:26:42.378Z,1.60
2018-04-26T11:29:09.824Z,1.60
2018-04-26T11:31:37.373Z,1.40
2018-04-26T11:34:04.823Z,1.67
2018-04-26T11:36:32.305Z,1.97
2018-04-26T11:39:00.064Z,1.73
2018-04-26T11:41:27.953Z,1.60
2018-04-26T11:43:55.471Z,1.60
2018-04-26T11:46:22.940Z,1.87
2018-04-26T11:48:50.657Z,1.43
2018-04-26T11:51:18.167Z,1.60
2018-04-26T11:53:46.414Z,1.80
2018-04-26T11:56:14.255Z,1.97
2018-04-26T11:58:41.675Z,1.70
2018-04-26T12:01:09.144Z,1.50
2018-04-26T12:03:37.210Z,1.50
2018-04-26T12:06:04.701Z,2.77
2018-04-26T12:08:32.803Z,1.70
2018-04-26T12:11:00.410Z,1.80
2018-04-26T12:13:27.982Z,1.40
2018-04-26T12:15:55.577Z,2.40
2018-04-26T12:18:23.067Z,1.60
2018-04-26T12:20:50.670Z,1.90
2018-04-26T12:23:18.134Z,1.80
2018-04-26T12:25:45.673Z,1.47
2018-04-26T12:28:13.150Z,2.00
2018-04-26T12:30:40.783Z,1.33
2018-04-26T12:33:08.645Z,1.43
2018-04-26T12:35:36.122Z,1.83
2018-04-26T12:38:03.589Z,1.63
2018-04-26T12:40:31.059Z,1.50
2018-04-26T12:42:58.536Z,2.00
2018-04-26T12:45:26.026Z,1.73
2018-04-26T12:47:53.567Z,1.80
2018-04-26T12:50:21.046Z,1.70
2018-04-26T12:52:49.298Z,1.60
2018-04-26T12:55:16.759Z,1.60
2018-04-26T12:57:44.273Z,1.47
2018-04-26T13:00:11.733Z,1.83
2018-04-26T13:02:39.313Z,1.60
2018-04-26T13:05:06.827Z,1.67
2018-04-26T13:07:35.149Z,1.70
2018-04-26T13:10:02.708Z,1.33
2018-04-26T13:12:30.215Z,1.30
2018-04-26T13:14:58.953Z,1.50
2018-04-26T13:17:28.250Z,1.40
2018-04-26T13:19:55.659Z,1.50
2018-04-26T13:22:23.198Z,1.50
2018-04-26T13:24:51.245Z,1.30
2018-04-26T13:27:18.838Z,1.30
2018-04-26T13:29:46.324Z,1.20
2018-04-26T13:32:14.576Z,1.30
2018-04-26T13:34:42.901Z,1.10
2018-04-26T13:37:10.488Z,1.30
2018-04-26T13:39:38.040Z,1.47
2018-04-26T13:42:05.483Z,1.50
2018-04-26T13:44:32.951Z,1.50
2018-04-26T13:47:00.500Z,1.47
2018-04-26T13:49:28.028Z,1.50
2018-04-26T13:51:55.524Z,1.63
2018-04-26T13:54:23.091Z,2.13
2018-04-26T13:56:51.716Z,1.70
2018-04-26T13:59:19.349Z,2.03
2018-04-26T14:01:46.949Z,1.60
2018-04-26T14:04:15.211Z,1.80
2018-04-26T14:06:43.170Z,3.33
2018-04-26T14:09:10.654Z,2.17
2018-04-26T14:11:38.988Z,2.70
2018-04-26T14:14:06.595Z,2.00
2018-04-26T14:16:34.306Z,4.93
2018-04-26T14:19:02.012Z,1.87
2018-04-26T14:21:29.547Z,2.20
2018-04-26T14:23:57.887Z,1.73
2018-04-26T14:26:26.019Z,1.60
2018-04-26T14:28:53.637Z,1.60
2018-04-26T14:31:21.871Z,2.07
2018-04-26T14:33:49.346Z,1.70
2018-04-26T14:36:16.876Z,1.80
2018-04-26T14:38:44.355Z,1.90
2018-04-26T14:41:11.878Z,1.60
2018-04-26T14:43:39.737Z,1.80
2018-04-26T14:46:07.593Z,1.30
2018-04-26T14:48:36.273Z,1.70
2018-04-26T14:51:03.848Z,2.00
2018-04-26T14:53:31.348Z,1.57
2018-04-26T14:55:59.045Z,1.93
2018-04-26T14:58:26.951Z,1.60
2018-04-26T15:00:54.416Z,1.73
2018-04-26T15:03:22.764Z,1.70
2018-04-26T15:05:50.353Z,1.67
2018-04-26T15:08:17.793Z,2.40
2018-04-26T15:10:45.337Z,1.63
2018-04-26T15:13:13.220Z,2.00
2018-04-26T15:15:40.793Z,1.90
2018-04-26T15:18:09.230Z,1.90
2018-04-26T15:20:36.742Z,1.50
2018-04-26T15:23:04.272Z,1.57
2018-04-26T15:25:31.983Z,1.63
2018-04-26T15:27:59.520Z,1.90
2018-04-26T15:30:27.199Z,1.90
2018-04-26T15:32:54.749Z,2.00
2018-04-26T15:35:22.816Z,1.90
2018-04-26T15:37:50.348Z,1.57
2018-04-26T15:40:17.885Z,1.47
2018-04-26T15:42:45.550Z,2.10
2018-04-26T15:45:13.291Z,2.10
2018-04-26T15:47:40.864Z,1.77
2018-04-26T15:50:09.617Z,2.07
2018-04-26T15:52:55.563Z,1.90
2018-04-26T15:55:35.625Z,1.50
2018-04-26T15:58:15.790Z,1.70
2018-04-26T16:01:00.902Z,2.10
2018-04-26T16:03:41.065Z,1.60
2018-04-26T16:06:32.342Z,1.60
2018-04-26T16:09:11.729Z,1.87
2018-04-26T16:11:51.576Z,1.53
2018-04-26T16:14:34.619Z,1.87
2018-04-26T16:17:32.341Z,1.43
2018-04-26T16:20:19.564Z,1.60
2018-04-26T16:23:04.556Z,1.73
2018-04-26T16:25:45.565Z,1.37
2018-04-26T16:28:30.534Z,1.40
2018-04-26T16:31:22.568Z,1.70
2018-04-26T16:34:06.873Z,2.20
2018-04-26T16:36:46.168Z,1.50
2018-04-26T16:39:16.391Z,1.60
2018-04-26T16:41:43.867Z,2.00
2018-04-26T16:44:11.469Z,2.27
2018-04-26T16:46:38.957Z,2.20
2018-04-26T16:49:06.908Z,2.10
2018-04-26T16:51:34.312Z,1.77
2018-04-26T16:54:01.889Z,1.90
2018-04-26T16:56:29.375Z,2.33
2018-04-26T16:58:56.992Z,1.67
2018-04-26T17:01:25.412Z,2.00
2018-04-26T17:03:52.919Z,1.60
2018-04-26T17:06:20.559Z,1.80
2018-04-26T17:08:48.084Z,1.63
2018-04-26T17:11:17.015Z,1.53
2018-04-26T17:13:44.543Z,2.00
2018-04-26T17:16:12.963Z,2.00
2018-04-26T17:18:40.803Z,2.10
2018-04-26T17:21:09.509Z,1.80
2018-04-26T17:23:38.109Z,1.70
2018-04-26T17:26:06.485Z,1.70
2018-04-26T17:28:34.004Z,1.80
2018-04-26T17:31:01.529Z,1.60
2018-04-26T17:33:29.020Z,1.87
2018-04-26T17:35:56.649Z,1.57
2018-04-26T17:38:24.117Z,1.63
2018-04-26T17:40:52.028Z,1.60
2018-04-26T17:43:19.642Z,1.50
2018-04-26T17:45:47.426Z,1.77
2018-04-26T17:48:16.780Z,1.97
2018-04-26T17:50:45.871Z,1.97
2018-04-26T17:53:13.980Z,1.47
2018-04-26T17:55:42.183Z,1.80
2018-04-26T17:58:12.493Z,1.87
2018-04-26T18:00:39.944Z,1.87
2018-04-26T18:03:07.475Z,1.83
2018-04-26T18:05:35.842Z,1.50
2018-04-26T18:08:07.581Z,1.70
2018-04-26T18:10:35.827Z,1.50
2018-04-26T18:13:03.800Z,1.50
2018-04-26T18:15:31.466Z,1.30
2018-04-26T18:17:59.786Z,1.57
2018-04-26T18:20:27.353Z,1.70
2018-04-26T18:22:54.868Z,1.60
2018-04-26T18:25:23.560Z,2.10
2018-04-26T18:27:51.245Z,1.80
2018-04-26T18:30:21.199Z,1.93
2018-04-26T18:32:48.732Z,1.90
2018-04-26T18:35:16.239Z,2.20
2018-04-26T18:37:44.383Z,2.10
2018-04-26T18:40:11.869Z,1.80
2018-04-26T18:42:39.398Z,2.17
2018-04-26T18:45:06.848Z,2.50
2018-04-26T18:47:34.372Z,2.00
2018-04-26T18:50:02.622Z,2.20
2018-04-26T18:52:31.151Z,2.33
2018-04-26T18:55:00.715Z,2.00
2018-04-26T18:57:28.238Z,2.10
2018-04-26T18:59:55.680Z,3.33
2018-04-26T19:02:24.060Z,3.90
2018-04-26T19:04:53.114Z,2.37
2018-04-26T19:07:20.904Z,2.20
2018-04-26T19:09:48.514Z,2.60
2018-04-26T19:12:16.473Z,1.93
2018-04-26T19:14:44.108Z,2.43
2018-04-26T19:17:11.928Z,1.80
2018-04-26T19:19:47.845Z,2.00
2018-04-26T19:22:15.885Z,1.83
2018-04-26T19:24:43.451Z,2.17
2018-04-26T19:27:11.113Z,2.50
2018-04-26T19:29:38.671Z,2.40
2018-04-26T19:32:06.180Z,2.47
2018-04-26T19:34:35.180Z,2.93
2018-04-26T19:37:02.992Z,3.10
2018-04-26T19:39:31.620Z,2.40
2018-04-26T19:41:59.077Z,2.93
2018-04-26T19:44:27.186Z,2.83
2018-04-26T19:46:56.453Z,2.70
2018-04-26T19:49:27.730Z,2.60
2018-04-26T19:51:55.236Z,2.40
2018-04-26T19:54:22.812Z,2.50
2018-04-26T19:56:50.361Z,3.10
2018-04-26T19:59:18.966Z,3.80
2018-04-26T20:01:47.448Z,2.90
2018-04-26T20:04:18.781Z,2.83
2018-04-26T20:06:47.064Z,2.30
2018-04-26T20:09:14.685Z,2.67
2018-04-26T20:11:42.312Z,2.30
2018-04-26T20:14:09.766Z,2.53
2018-04-26T20:16:37.298Z,2.37
2018-04-26T20:19:05.547Z,3.00
2018-04-26T20:21:33.013Z,2.30
2018-04-26T20:24:00.594Z,2.43
2018-04-26T20:26:28.027Z,2.37
2018-04-26T20:28:55.709Z,2.40
2018-04-26T20:31:23.378Z,1.70
2018-04-26T20:33:50.989Z,2.33
2018-04-26T20:36:18.559Z,3.00
2018-04-26T20:38:46.467Z,2.70
2018-04-26T20:41:13.929Z,2.80
2018-04-26T20:43:41.404Z,2.67
2018-04-26T20:46:08.884Z,3.07
2018-04-26T20:48:39.798Z,2.73
2018-04-26T20:51:07.230Z,2.90
2018-04-26T20:53:34.681Z,2.50
2018-04-26T20:56:02.279Z,2.30
2018-04-26T20:58:29.830Z,2.50
2018-04-26T21:00:57.408Z,2.10
2018-04-26T21:03:24.842Z,2.40
2018-04-26T21:05:52.311Z,2.77
2018-04-26T21:08:19.856Z,2.53
2018-04-26T21:10:47.376Z,2.13
2018-04-26T21:13:14.822Z,2.43
2018-04-26T21:15:42.290Z,2.20
2018-04-26T21:18:09.991Z,2.70
2018-04-26T21:20:37.493Z,2.57
2018-04-26T21:23:04.934Z,2.50
2018-04-26T21:25:32.382Z,2.80
2018-04-26T21:27:59.852Z,2.93
2018-04-26T21:30:27.341Z,3.37
2018-04-26T21:32:54.817Z,2.80
2018-04-26T21:35:22.250Z,3.10
2018-04-26T21:37:49.806Z,3.90
2018-04-26T21:40:17.719Z,2.90
2018-04-26T21:42:45.180Z,2.67
2018-04-26T21:45:12.693Z,2.73
2018-04-26T21:47:40.199Z,2.90
2018-04-26T21:50:13.184Z,3.10
2018-04-26T21:52:46.258Z,3.80
2018-04-26T21:55:19.419Z,3.30
2018-04-26T21:57:52.508Z,3.20
2018-04-26T22:00:25.630Z,3.10
2018-04-26T22:02:52.499Z,3.20
2018-04-26T22:05:22.637Z,3.10
2018-04-26T22:07:50.116Z,3.00
2018-04-26T22:10:17.576Z,3.60
2018-04-26T22:12:45.007Z,4.70
2018-04-26T22:15:12.477Z,3.83
2018-04-26T22:17:39.921Z,3.43
2018-04-26T22:20:07.485Z,3.40
2018-04-26T22:22:35.072Z,4.60
2018-04-26T22:25:02.650Z,4.43
2018-04-26T22:27:30.302Z,3.67
2018-04-26T22:29:57.835Z,3.43
2018-04-26T22:32:25.319Z,3.27
2018-04-26T22:34:53.406Z,2.23
2018-04-26T22:37:20.857Z,3.20
2018-04-26T22:39:48.365Z,9.47
2018-04-26T22:42:15.844Z,43.90
2018-04-26T22:44:43.325Z,61.73
2018-04-26T22:47:10.825Z,65.53
2018-04-26T22:49:38.319Z,61.53
2018-04-26T22:52:05.808Z,56.27
2018-04-26T22:54:33.240Z,53.60
2018-04-26T22:57:00.730Z,66.80
2018-04-26T22:59:28.221Z,75.30
2018-04-26T23:01:55.728Z,80.20
2018-04-26T23:04:23.380Z,59.40
2018-04-26T23:06:50.890Z,43.10
2018-04-26T23:09:18.727Z,33.80
2018-04-26T23:11:46.171Z,25.20
2018-04-26T23:14:13.645Z,19.83
2018-04-26T23:16:41.079Z,18.43
2018-04-26T23:19:08.706Z,13.83
2018-04-26T23:21:36.222Z,13.20
2018-04-26T23:24:03.919Z,8.73
2018-04-26T23:26:31.444Z,5.90
2018-04-26T23:28:59.125Z,5.10
2018-04-26T23:31:26.693Z,4.57
2018-04-26T23:33:54.326Z,4.70
2018-04-26T23:36:21.769Z,4.60
2018-04-26T23:38:49.210Z,3.40
2018-04-26T23:41:16.751Z,3.17
2018-04-26T23:43:44.448Z,3.30
2018-04-26T23:46:11.957Z,3.67
2018-04-26T23:48:39.410Z,3.67
2018-04-26T23:51:10.679Z,3.40
2018-04-26T23:53:38.106Z,3.70
2018-04-26T23:56:05.628Z,3.70
2018-04-26T23:58:33.065Z,3.30
